Time;durP1;ratioP1;P1;durP2;ratioP2;P2;SDS_P1;SDS_P2;PMS_P1;PMS_P2;Temp;Humidity;BMP_temperature;BMP_pressure;BME280_temperature;BME280_humidity;BME280_pressure;Samples;Min_cycle;Max_cycle;Signal;HPM_P1;HPM_P2
2022/01/09 00:00:54;;;;;;;;;4.50;2.75;;;;;7.72;65.84;99183.03;5118425;27;45392;-63
2022/01/09 00:03:20;;;;;;;;;4.75;3.75;;;;;7.70;65.60;99205.91;5118178;27;46035;-63
2022/01/09 00:05:45;;;;;;;;;11.50;4.00;;;;;7.69;65.59;99204.25;5118115;27;45443;-62
2022/01/09 00:08:10;;;;;;;;;7.25;3.50;;;;;7.67;65.85;99216.66;5100005;27;45741;-64
2022/01/09 00:10:36;;;;;;;;;8.50;4.00;;;;;7.66;65.45;99226.31;5099106;27;60546;-60
2022/01/09 00:13:01;;;;;;;;;6.00;3.00;;;;;7.64;65.73;99220.41;5117857;27;45572;-64
2022/01/09 00:15:27;;;;;;;;;3.50;2.75;;;;;7.62;65.81;99234.56;5118169;27;45311;-63
2022/01/09 00:17:52;;;;;;;;;6.50;3.25;;;;;7.61;65.84;99232.94;5117649;27;50197;-64
2022/01/09 00:20:17;;;;;;;;;5.50;3.00;;;;;7.62;65.87;99250.25;5117998;27;45272;-61
2022/01/09 00:22:48;;;;;;;;;4.00;2.25;;;;;7.62;65.88;99252.88;5098216;27;75420;-65
2022/01/09 00:25:14;;;;;;;;;5.50;2.00;;;;;7.62;65.97;99255.50;5100230;27;45363;-63
2022/01/09 00:27:40;;;;;;;;;2.50;2.50;;;;;7.64;65.80;99258.78;5117543;27;45300;-63
2022/01/09 00:30:06;;;;;;;;;5.00;2.00;;;;;7.64;65.37;99264.00;5117957;27;45540;-63
2022/01/09 00:32:32;;;;;;;;;3.75;2.00;;;;;7.64;65.57;99270.06;5099255;27;45526;-64
2022/01/09 00:34:57;;;;;;;;;5.75;2.00;;;;;7.65;65.51;99283.94;5117452;27;49093;-64
2022/01/09 00:37:23;;;;;;;;;2.00;2.00;;;;;7.63;65.61;99284.13;5098478;27;64829;-63
2022/01/09 00:39:48;;;;;;;;;4.00;2.00;;;;;7.64;65.42;99290.16;5098329;27;62492;-64
2022/01/09 00:42:13;;;;;;;;;2.25;1.00;;;;;7.63;65.28;99289.34;5117481;27;45373;-63
2022/01/09 00:44:39;;;;;;;;;4.25;3.00;;;;;7.63;65.50;99304.19;5098383;27;69603;-64
2022/01/09 00:47:04;;;;;;;;;2.25;1.00;;;;;7.64;65.28;99300.59;5098490;27;61142;-67
2022/01/09 00:49:30;;;;;;;;;3.25;1.00;;;;;7.63;65.24;99304.19;5098256;27;64339;-64
2022/01/09 00:51:55;;;;;;;;;1.25;1.00;;;;;7.61;64.80;99306.13;5117059;27;51305;-65
2022/01/09 00:54:20;;;;;;;;;2.25;1.00;;;;;7.60;64.71;99314.94;5116274;27;73228;-64
2022/01/09 00:56:46;;;;;;;;;3.00;2.00;;;;;7.58;64.52;99326.38;5117456;27;45384;-67
2022/01/09 00:59:11;;;;;;;;;5.50;1.75;;;;;7.57;64.46;99342.22;5117308;27;45425;-63
2022/01/09 01:01:36;;;;;;;;;2.75;1.00;;;;;7.55;63.97;99334.50;5117190;27;45387;-62
2022/01/09 01:04:02;;;;;;;;;7.25;1.00;;;;;7.53;64.11;99346.88;5116493;27;64208;-63
2022/01/09 01:06:27;;;;;;;;;5.00;1.00;;;;;7.52;64.05;99350.47;5117350;27;45238;-65
2022/01/09 01:08:53;;;;;;;;;2.75;1.25;;;;;7.48;63.96;99356.94;5117404;27;45581;-64
2022/01/09 01:11:18;;;;;;;;;4.00;1.00;;;;;7.46;64.24;99358.88;5116235;27;71759;-62
2022/01/09 01:13:44;;;;;;;;;3.00;1.00;;;;;7.43;64.23;99364.41;5117023;27;45311;-62
2022/01/09 01:16:09;;;;;;;;;3.25;2.75;;;;;7.42;64.44;99378.44;5116544;27;61783;-62
2022/01/09 01:18:35;;;;;;;;;4.25;2.75;;;;;7.40;64.40;99368.16;5117122;27;45515;-62
2022/01/09 01:21:01;;;;;;;;;2.25;1.00;;;;;7.38;64.58;99383.13;5080340;27;75737;-61
2022/01/09 01:23:26;;;;;;;;;2.75;1.00;;;;;7.35;64.65;99387.84;5117037;27;45269;-64
2022/01/09 01:25:52;;;;;;;;;2.00;2.00;;;;;7.35;64.64;99406.13;5098245;27;57299;-62
2022/01/09 01:28:18;;;;;;;;;3.25;1.75;;;;;7.31;64.68;99408.19;5116885;27;45647;-64
2022/01/09 01:30:43;;;;;;;;;4.25;1.75;;;;;7.31;64.62;99418.66;5115648;27;45385;-63
2022/01/09 01:33:09;;;;;;;;;2.00;1.25;;;;;7.28;64.91;99425.00;5116483;27;58552;-61
2022/01/09 01:35:34;;;;;;;;;4.75;2.25;;;;;7.26;64.85;99424.31;5099036;27;54354;-62
2022/01/09 01:38:00;;;;;;;;;5.75;2.00;;;;;7.26;64.75;99439.16;5119577;27;65874;-63
2022/01/09 01:40:25;;;;;;;;;6.00;1.50;;;;;7.24;64.46;99435.84;5101973;27;45478;-61
2022/01/09 01:42:51;;;;;;;;;1.00;1.00;;;;;7.23;64.59;99450.72;5119443;27;69889;-63
2022/01/09 01:45:16;;;;;;;;;5.25;1.75;;;;;7.22;64.53;99454.31;5120461;27;45464;-65
2022/01/09 01:47:41;;;;;;;;;3.75;2.00;;;;;7.20;64.37;99460.63;5119436;27;68192;-63
2022/01/09 01:50:08;;;;;;;;;2.50;0.25;;;;;7.19;64.50;99475.47;5084717;27;45430;-64
2022/01/09 01:52:41;;;;;;;;;1.25;1.00;;;;;7.18;64.46;99484.28;5120255;27;45808;-64
2022/01/09 01:55:08;;;;;;;;;2.75;1.00;;;;;7.17;64.64;99477.41;5087317;27;45370;-65
2022/01/09 01:57:34;;;;;;;;;3.25;2.00;;;;;7.18;64.49;99484.28;5120150;27;45469;-64
2022/01/09 01:59:59;;;;;;;;;5.50;1.00;;;;;7.18;64.82;99486.06;5101591;27;45359;-63
2022/01/09 02:02:26;;;;;;;;;2.75;1.25;;;;;7.17;64.83;99508.75;5083530;27;71517;-63
2022/01/09 02:04:52;;;;;;;;;3.00;1.00;;;;;7.18;64.79;99510.41;5120138;27;45385;-65
2022/01/09 02:07:17;;;;;;;;;1.75;1.75;;;;;7.19;64.93;99519.06;5101558;27;45565;-64
2022/01/09 02:09:44;;;;;;;;;3.50;1.00;;;;;7.19;64.79;99511.22;5100611;27;71796;-62
2022/01/09 02:12:10;;;;;;;;;1.00;1.00;;;;;7.18;64.74;99517.41;5101670;27;45519;-62
2022/01/09 02:14:38;;;;;;;;;1.00;1.00;;;;;7.16;64.78;99514.09;5101390;27;45402;-65
2022/01/09 02:17:04;;;;;;;;;2.00;1.00;;;;;7.13;64.84;99529.13;5119991;27;45386;-63
2022/01/09 02:19:30;;;;;;;;;4.25;0.25;;;;;7.11;65.18;99535.44;5101195;27;45401;-62
2022/01/09 02:21:56;;;;;;;;;0.25;0.25;;;;;7.10;65.36;99539.00;5101281;27;45224;-64
2022/01/09 02:24:23;;;;;;;;;1.25;1.25;;;;;7.09;65.27;99548.66;5101664;27;45251;-62
2022/01/09 02:26:49;;;;;;;;;2.00;0.25;;;;;7.07;65.44;99555.78;5119698;27;45238;-64
2022/01/09 02:29:14;;;;;;;;;2.00;1.50;;;;;7.06;65.38;99561.13;5101133;27;45470;-62
2022/01/09 02:31:39;;;;;;;;;1.00;1.00;;;;;7.06;65.31;99558.53;5100423;27;67839;-64
2022/01/09 02:34:05;;;;;;;;;0.25;0.00;;;;;7.04;65.78;99550.00;5101279;27;45699;-64
2022/01/09 02:36:30;;;;;;;;;2.25;1.00;;;;;7.00;65.68;99559.91;5100799;27;51046;-64
2022/01/09 02:38:56;;;;;;;;;2.50;1.25;;;;;7.00;65.65;99556.47;5083706;27;48439;-62
2022/01/09 02:41:21;;;;;;;;;1.00;1.00;;;;;6.97;65.68;99560.19;5100968;27;45434;-65
2022/01/09 02:43:47;;;;;;;;;3.00;1.00;;;;;6.98;65.55;99565.25;5119511;27;45366;-64
2022/01/09 02:46:24;;;;;;;;;0.00;0.00;;;;;6.92;65.54;99563.19;5119150;27;45362;-65
2022/01/09 02:48:51;;;;;;;;;3.50;0.75;;;;;6.91;65.33;99556.31;5086745;27;46335;-64
2022/01/09 02:51:18;;;;;;;;;0.00;0.00;;;;;6.89;65.49;99563.47;5101056;27;45864;-62
2022/01/09 02:53:46;;;;;;;;;3.00;0.50;;;;;6.86;65.63;99579.44;5101130;27;45244;-64
2022/01/09 02:56:12;;;;;;;;;1.00;1.00;;;;;6.86;65.33;99584.66;5101341;27;45510;-65
2022/01/09 02:58:37;;;;;;;;;0.50;0.00;;;;;6.84;65.36;99594.41;5099606;27;69549;-64
2022/01/09 03:01:04;;;;;;;;;1.25;0.00;;;;;6.84;65.33;99604.84;5118627;27;59725;-62
2022/01/09 03:03:29;;;;;;;;;1.50;0.00;;;;;6.82;65.20;99602.34;5100907;27;45418;-63
2022/01/09 03:05:55;;;;;;;;;1.00;1.00;;;;;6.81;65.51;99597.28;5099700;27;67041;-63
2022/01/09 03:08:20;;;;;;;;;2.00;0.00;;;;;6.81;65.75;99615.56;5100523;27;45205;-61
2022/01/09 03:10:45;;;;;;;;;1.00;0.50;;;;;6.79;66.12;99631.34;5118162;27;66056;-62
2022/01/09 03:13:11;;;;;;;;;2.00;0.25;;;;;6.80;65.99;99629.56;5100673;27;45421;-64
2022/01/09 03:15:36;;;;;;;;;0.00;0.00;;;;;6.82;66.00;99627.66;5100643;27;45513;-66
2022/01/09 03:18:02;;;;;;;;;0.00;0.00;;;;;6.82;66.05;99635.47;5117957;27;68443;-63
2022/01/09 03:20:28;;;;;;;;;0.00;0.00;;;;;6.82;65.89;99636.28;5118605;27;45326;-62
2022/01/09 03:22:54;;;;;;;;;0.00;0.00;;;;;6.84;65.97;99623.13;5100443;27;45197;-66
2022/01/09 03:25:20;;;;;;;;;1.00;0.00;;;;;6.82;65.87;99628.47;5100597;27;45362;-62
2022/01/09 03:27:48;;;;;;;;;1.25;1.00;;;;;6.82;65.74;99625.03;5096355;27;45887;-66
2022/01/09 03:30:14;;;;;;;;;0.50;0.00;;;;;6.82;65.68;99632.88;5080001;27;45401;-64
2022/01/09 03:32:39;;;;;;;;;1.00;0.00;;;;;6.80;65.58;99634.78;5096844;27;45917;-66
2022/01/09 03:35:06;;;;;;;;;0.25;0.00;;;;;6.80;65.99;99626.97;5079698;27;45443;-63
2022/01/09 03:37:31;;;;;;;;;0.00;0.00;;;;;6.79;65.64;99628.72;5079722;27;45400;-63
2022/01/09 03:39:57;;;;;;;;;2.00;0.00;;;;;6.79;66.15;99633.13;5095990;27;59352;-62
2022/01/09 03:42:22;;;;;;;;;1.00;1.00;;;;;6.80;66.01;99660.91;5097585;27;48479;-64
2022/01/09 03:44:48;;;;;;;;;2.25;1.00;;;;;6.81;65.95;99670.38;5097923;27;45418;-63
2022/01/09 03:47:13;;;;;;;;;2.25;2.00;;;;;6.83;66.27;99671.09;5097423;27;47625;-65
2022/01/09 03:49:38;;;;;;;;;0.25;0.25;;;;;6.81;66.30;99679.03;5096813;27;69232;-62
2022/01/09 03:52:04;;;;;;;;;1.75;1.25;;;;;6.81;66.74;99675.63;5078601;27;63412;-62
2022/01/09 03:54:29;;;;;;;;;1.00;1.00;;;;;6.78;67.20;99674.06;5096348;27;45368;-62
2022/01/09 03:56:55;;;;;;;;;2.00;1.25;;;;;6.76;67.58;99662.13;5097196;27;55494;-64
2022/01/09 03:59:20;;;;;;;;;2.75;1.00;;;;;6.76;67.74;99659.50;5096145;27;67492;-67
2022/01/09 04:01:46;;;;;;;;;1.75;1.00;;;;;6.74;67.39;99648.38;5078398;27;64194;-63
2022/01/09 04:04:11;;;;;;;;;1.00;1.00;;;;;6.70;67.60;99637.34;5097460;27;45345;-63
2022/01/09 04:06:42;;;;;;;;;1.25;0.00;;;;;6.70;67.26;99653.03;5097381;27;45339;-64
2022/01/09 04:09:17;;;;;;;;;1.50;0.00;;;;;6.67;67.40;99655.91;5096177;27;45735;-63
2022/01/09 04:11:42;;;;;;;;;0.75;0.00;;;;;6.65;67.24;99663.88;5096103;27;45464;-65
2022/01/09 04:14:08;;;;;;;;;2.75;1.00;;;;;6.62;67.17;99658.91;5097439;27;45406;-65
2022/01/09 04:16:33;;;;;;;;;1.00;1.00;;;;;6.60;67.11;99660.81;5095133;27;68394;-63
2022/01/09 04:18:58;;;;;;;;;0.00;0.00;;;;;6.57;67.24;99668.91;5095417;27;60328;-63
2022/01/09 04:21:24;;;;;;;;;0.00;0.00;;;;;6.55;67.21;99664.81;5096272;27;68075;-64
2022/01/09 04:23:49;;;;;;;;;2.00;1.00;;;;;6.51;67.30;99661.63;5096318;27;66813;-62
2022/01/09 04:26:16;;;;;;;;;0.00;0.00;;;;;6.48;67.18;99667.09;5097125;27;45566;-62
2022/01/09 04:28:42;;;;;;;;;1.00;0.00;;;;;6.44;67.28;99668.31;5095633;27;45918;-65
2022/01/09 04:31:07;;;;;;;;;2.00;1.00;;;;;6.41;67.40;99672.03;5096100;27;64939;-62
2022/01/09 04:33:33;;;;;;;;;0.25;0.00;;;;;6.37;67.50;99679.25;5096320;27;64917;-66
2022/01/09 04:35:58;;;;;;;;;0.00;0.00;;;;;6.35;67.57;99685.59;5096609;27;52638;-64
2022/01/09 04:38:23;;;;;;;;;0.50;0.00;;;;;6.31;67.77;99692.00;5095935;27;71640;-64
2022/01/09 04:40:49;;;;;;;;;1.00;0.00;;;;;6.28;67.74;99694.88;5095663;27;46964;-64
2022/01/09 04:43:15;;;;;;;;;0.00;0.00;;;;;6.25;68.10;99706.41;5097126;27;45587;-61
2022/01/09 04:45:41;;;;;;;;;0.00;0.00;;;;;6.22;68.26;99698.84;5096712;27;45536;-66
2022/01/09 04:48:09;;;;;;;;;0.00;0.00;;;;;6.19;68.39;99691.28;5096848;27;45356;-66
2022/01/09 04:50:36;;;;;;;;;0.00;0.00;;;;;6.18;68.65;99685.22;5095771;27;45374;-62
2022/01/09 04:53:06;;;;;;;;;3.00;0.25;;;;;6.16;68.99;99687.13;5079041;27;45603;-63
2022/01/09 04:55:33;;;;;;;;;1.25;1.00;;;;;6.16;68.99;99701.97;5079142;27;45418;-62
2022/01/09 04:57:58;;;;;;;;;1.25;0.75;;;;;6.15;69.01;99701.13;5078576;27;45252;-64
2022/01/09 05:00:24;;;;;;;;;4.50;1.00;;;;;6.17;69.20;99704.44;5095450;27;45351;-65
2022/01/09 05:02:49;;;;;;;;;1.50;1.00;;;;;6.20;69.35;99700.75;5095775;27;70416;-66
2022/01/09 05:05:14;;;;;;;;;3.25;1.00;;;;;6.22;69.53;99711.88;5094580;27;65107;-64
2022/01/09 05:07:40;;;;;;;;;2.75;1.00;;;;;6.24;69.54;99702.16;5096534;27;45333;-63
2022/01/09 05:10:06;;;;;;;;;1.25;0.00;;;;;6.26;69.35;99709.84;5096935;27;45353;-64
2022/01/09 05:12:32;;;;;;;;;0.50;0.00;;;;;6.28;69.54;99706.16;5099068;27;45643;-66
2022/01/09 05:14:57;;;;;;;;;0.25;0.00;;;;;6.30;69.63;99709.47;5100008;27;48142;-62
2022/01/09 05:17:23;;;;;;;;;2.00;1.00;;;;;6.31;69.49;99712.88;5097899;27;69764;-64
2022/01/09 05:19:51;;;;;;;;;1.75;1.00;;;;;6.33;69.45;99709.22;5097825;27;66942;-65
2022/01/09 05:22:16;;;;;;;;;4.50;1.25;;;;;6.36;69.43;99713.31;5100056;27;45338;-65
2022/01/09 05:24:41;;;;;;;;;1.50;1.00;;;;;6.37;69.50;99721.00;5097835;27;68637;-63
2022/01/09 05:27:07;;;;;;;;;1.25;1.00;;;;;6.41;69.40;99731.19;5100381;27;47341;-62
2022/01/09 05:29:32;;;;;;;;;1.50;0.25;;;;;6.40;69.62;99740.81;5119687;27;67741;-65
2022/01/09 05:31:57;;;;;;;;;1.50;1.00;;;;;6.39;69.72;99708.66;5119822;27;61908;-62
2022/01/09 05:34:23;;;;;;;;;3.25;0.50;;;;;6.41;69.60;99715.53;5101031;27;73460;-63
2022/01/09 05:36:48;;;;;;;;;3.50;0.00;;;;;6.41;69.89;99715.53;5119907;27;58211;-65
2022/01/09 05:39:14;;;;;;;;;3.00;0.50;;;;;6.37;69.78;99707.97;5119728;27;61008;-62
2022/01/09 05:41:40;;;;;;;;;0.75;0.75;;;;;6.40;69.69;99709.50;5101979;27;45361;-62
2022/01/09 05:44:05;;;;;;;;;1.00;0.00;;;;;6.38;69.45;99706.19;5101881;27;46527;-65
2022/01/09 05:46:31;;;;;;;;;2.50;0.25;;;;;6.36;69.64;99724.56;5119536;27;63841;-64
2022/01/09 05:48:56;;;;;;;;;0.00;0.00;;;;;6.34;69.26;99713.47;5120470;27;45255;-63
2022/01/09 05:51:21;;;;;;;;;0.00;0.00;;;;;6.32;69.09;99720.59;5101271;27;59849;-65
2022/01/09 05:53:47;;;;;;;;;0.00;0.00;;;;;6.28;68.82;99718.34;5100860;27;71562;-62
2022/01/09 05:56:12;;;;;;;;;0.00;0.00;;;;;6.23;68.91;99701.31;5119099;27;69136;-61
2022/01/09 05:58:39;;;;;;;;;1.00;0.00;;;;;6.20;69.01;99705.97;5100867;27;64459;-64
2022/01/09 06:01:05;;;;;;;;;0.00;0.00;;;;;6.16;69.22;99707.19;5119900;27;45496;-64
2022/01/09 06:03:30;;;;;;;;;0.00;0.00;;;;;6.12;69.15;99717.03;5084361;27;46835;-65
2022/01/09 06:05:56;;;;;;;;;0.00;0.00;;;;;6.09;69.11;99720.72;5119850;27;45417;-63
2022/01/09 06:08:21;;;;;;;;;0.00;0.00;;;;;6.07;69.28;99727.84;5119132;27;64640;-62
2022/01/09 06:10:46;;;;;;;;;0.00;0.00;;;;;6.03;69.25;99723.84;5118827;27;70436;-64
2022/01/09 06:13:12;;;;;;;;;2.00;0.00;;;;;6.02;69.63;99723.97;5100273;27;70310;-64
2022/01/09 06:15:37;;;;;;;;;0.75;0.00;;;;;6.01;69.17;99720.53;5118941;27;66718;-63
2022/01/09 06:18:03;;;;;;;;;0.00;0.00;;;;;5.96;69.51;99727.88;5119076;27;63649;-64
2022/01/09 06:20:28;;;;;;;;;1.00;1.00;;;;;5.91;69.69;99723.03;5100447;27;66817;-65
2022/01/09 06:22:53;;;;;;;;;2.75;1.50;;;;;5.91;69.75;99724.81;5100921;27;45374;-63
2022/01/09 06:25:19;;;;;;;;;1.75;0.00;;;;;5.90;70.09;99725.75;5119440;27;53475;-63
2022/01/09 06:27:44;;;;;;;;;3.25;0.00;;;;;5.89;70.32;99731.94;5119427;27;45402;-61
2022/01/09 06:30:10;;;;;;;;;0.00;0.00;;;;;5.88;70.53;99740.69;5084271;27;45262;-62
2022/01/09 06:32:35;;;;;;;;;2.00;0.00;;;;;5.88;70.49;99745.91;5101000;27;45556;-63
2022/01/09 06:35:01;;;;;;;;;1.25;0.00;;;;;5.87;71.07;99747.72;5101291;27;45417;-65
2022/01/09 06:37:26;;;;;;;;;1.00;0.00;;;;;5.87;71.00;99746.88;5084207;27;45413;-63
2022/01/09 06:39:52;;;;;;;;;0.00;0.00;;;;;5.88;71.32;99756.34;5101183;27;45358;-65
2022/01/09 06:42:17;;;;;;;;;0.00;0.00;;;;;5.88;71.20;99754.56;5118319;27;75093;-62
2022/01/09 06:44:42;;;;;;;;;0.00;0.00;;;;;5.90;71.40;99752.69;5100758;27;51116;-65
2022/01/09 06:47:08;;;;;;;;;0.00;0.00;;;;;5.93;71.53;99749.81;5100110;27;65166;-62
2022/01/09 06:49:34;;;;;;;;;1.00;0.75;;;;;5.96;71.59;99747.91;5118499;27;65936;-63
2022/01/09 06:52:00;;;;;;;;;1.00;0.00;;;;;5.98;71.48;99746.81;5100684;27;47409;-64
2022/01/09 06:54:25;;;;;;;;;0.00;0.00;;;;;5.99;71.59;99758.91;5100725;27;45357;-66
2022/01/09 06:56:51;;;;;;;;;0.25;0.25;;;;;6.00;71.56;99765.81;5118477;27;64860;-63
2022/01/09 06:59:16;;;;;;;;;0.75;0.00;;;;;6.02;71.78;99765.69;5118250;27;65687;-61
2022/01/09 07:01:41;;;;;;;;;0.00;0.00;;;;;6.02;71.63;99758.69;5100591;27;45286;-64
2022/01/09 07:04:07;;;;;;;;;1.00;0.00;;;;;6.02;71.82;99753.47;5118298;27;64213;-62
2022/01/09 07:06:34;;;;;;;;;0.00;0.00;;;;;6.03;71.87;99747.31;5118814;27;48993;-64
2022/01/09 07:08:59;;;;;;;;;1.00;0.00;;;;;6.04;71.80;99746.34;5083617;27;45426;-65
2022/01/09 07:11:25;;;;;;;;;0.75;0.75;;;;;6.05;71.80;99740.19;5117877;27;73831;-64
2022/01/09 07:13:50;;;;;;;;;2.75;0.00;;;;;6.04;71.84;99748.97;5100499;27;45579;-66
2022/01/09 07:16:15;;;;;;;;;3.25;1.00;;;;;6.04;71.84;99746.34;5118120;27;59879;-63
2022/01/09 07:18:41;;;;;;;;;0.50;0.25;;;;;6.06;71.93;99747.06;5118078;27;61152;-62
2022/01/09 07:21:06;;;;;;;;;0.00;0.00;;;;;6.08;71.64;99750.38;5118024;27;63869;-64
2022/01/09 07:23:31;;;;;;;;;1.50;0.00;;;;;6.11;71.90;99751.06;5117709;27;70438;-62
2022/01/09 07:25:57;;;;;;;;;3.50;1.00;;;;;6.13;71.56;99747.38;5117905;27;56158;-63
2022/01/09 07:28:22;;;;;;;;;2.00;0.50;;;;;6.16;71.67;99735.88;5118057;27;47790;-65
2022/01/09 07:30:47;;;;;;;;;1.75;1.00;;;;;6.20;71.48;99742.50;5118299;27;45414;-63
2022/01/09 07:33:13;;;;;;;;;1.00;1.00;;;;;6.21;71.51;99744.97;5116781;27;63867;-65
2022/01/09 07:35:38;;;;;;;;;1.00;1.00;;;;;6.23;71.48;99744.84;5098968;27;69326;-62
2022/01/09 07:38:04;;;;;;;;;0.00;0.00;;;;;6.26;71.34;99747.19;5117577;27;64951;-64
2022/01/09 07:40:29;;;;;;;;;0.25;0.25;;;;;6.27;71.20;99748.84;5118277;27;45395;-62
2022/01/09 07:42:54;;;;;;;;;1.75;0.00;;;;;6.26;71.01;99749.81;5118386;27;45401;-66
2022/01/09 07:45:25;;;;;;;;;1.00;0.00;;;;;6.27;71.24;99745.41;5099910;27;45343;-65
2022/01/09 07:47:52;;;;;;;;;0.00;0.00;;;;;6.27;71.11;99746.25;5118457;27;45315;-66
2022/01/09 07:50:17;;;;;;;;;1.00;0.00;;;;;6.26;70.99;99747.19;5118162;27;46156;-62
2022/01/09 07:52:42;;;;;;;;;2.00;1.00;;;;;6.25;70.86;99758.59;5118112;27;45246;-63
2022/01/09 07:55:08;;;;;;;;;7.25;4.50;;;;;6.24;70.75;99757.75;5099481;27;58060;-64
2022/01/09 07:57:34;;;;;;;;;6.00;2.00;;;;;6.26;70.52;99749.81;5082918;27;45577;-62
2022/01/09 08:00:03;;;;;;;;;2.25;1.75;;;;;6.27;70.71;99748.84;5099385;27;47721;-63
2022/01/09 08:02:28;;;;;;;;;1.00;1.00;;;;;6.27;70.75;99746.25;5117932;27;45674;-65
2022/01/09 08:04:53;;;;;;;;;3.00;0.00;;;;;6.27;70.70;99741.03;5099680;27;45335;-64
2022/01/09 08:07:19;;;;;;;;;0.00;0.00;;;;;6.29;71.14;99751.31;5117041;27;66325;-62
2022/01/09 08:09:45;;;;;;;;;2.25;1.00;;;;;6.29;71.14;99754.78;5118018;27;45548;-64
2022/01/09 08:12:10;;;;;;;;;1.00;0.00;;;;;6.30;71.40;99759.03;5099616;27;45433;-64
2022/01/09 08:14:37;;;;;;;;;0.50;0.00;;;;;6.32;71.36;99764.13;5099783;27;45405;-64
2022/01/09 08:17:03;;;;;;;;;1.00;0.00;;;;;6.33;71.54;99769.22;5082811;27;45564;-63
2022/01/09 08:19:30;;;;;;;;;3.00;0.00;;;;;6.34;71.46;99767.41;5117620;27;46360;-62
2022/01/09 08:21:56;;;;;;;;;3.00;1.00;;;;;6.32;71.67;99764.97;5082796;27;45268;-65
2022/01/09 08:24:21;;;;;;;;;0.00;0.00;;;;;6.33;71.18;99768.38;5082345;27;45298;-66
2022/01/09 08:26:47;;;;;;;;;1.50;0.25;;;;;6.33;71.24;99771.81;5117922;27;45218;-65
2022/01/09 08:29:12;;;;;;;;;1.00;0.00;;;;;6.34;71.57;99773.47;5116842;27;65774;-66
2022/01/09 08:31:37;;;;;;;;;0.00;0.00;;;;;6.35;71.15;99763.84;5117229;27;60760;-62
2022/01/09 08:34:03;;;;;;;;;6.50;5.75;;;;;6.36;70.89;99775.94;5117938;27;45230;-63
2022/01/09 08:36:28;;;;;;;;;23.50;23.50;;;;;6.37;70.97;99775.81;5117825;27;45209;-64
2022/01/09 08:38:53;;;;;;;;;14.00;10.75;;;;;6.37;71.14;99767.97;5117128;27;51928;-65
2022/01/09 08:41:19;;;;;;;;;1.75;1.75;;;;;6.41;70.81;99763.34;5117146;27;56433;-65
2022/01/09 08:43:44;;;;;;;;;2.00;2.00;;;;;6.43;70.76;99764.06;5117242;27;45469;-64
2022/01/09 08:46:10;;;;;;;;;0.00;0.00;;;;;6.43;70.87;99760.59;5101977;27;63900;-62
2022/01/09 08:48:35;;;;;;;;;1.75;1.00;;;;;6.46;70.71;99766.41;5120528;27;56685;-65
2022/01/09 08:51:01;;;;;;;;;0.25;0.25;;;;;6.48;70.51;99767.09;5121196;27;45380;-62
2022/01/09 08:53:26;;;;;;;;;1.75;1.75;;;;;6.52;70.51;99772.88;5102939;27;45471;-64
2022/01/09 08:55:51;;;;;;;;;0.50;0.50;;;;;6.53;70.49;99761.50;5101935;27;61052;-62
2022/01/09 08:58:17;;;;;;;;;2.00;2.00;;;;;6.56;70.47;99766.44;5120118;27;68415;-65
2022/01/09 09:00:42;;;;;;;;;2.25;1.25;;;;;6.59;70.72;99779.25;5120777;27;45266;-64
2022/01/09 09:03:08;;;;;;;;;3.00;3.00;;;;;6.62;70.88;99781.59;5121080;27;45326;-64
2022/01/09 09:05:34;;;;;;;;;2.50;1.00;;;;;6.66;70.83;99782.16;5102854;27;45315;-63
2022/01/09 09:07:59;;;;;;;;;4.00;3.00;;;;;6.67;70.69;99784.66;5102566;27;46178;-65
2022/01/09 09:10:25;;;;;;;;;4.00;2.00;;;;;6.72;70.54;99786.06;5120773;27;45377;-62
2022/01/09 09:12:50;;;;;;;;;2.75;2.00;;;;;6.72;70.62;99789.47;5102327;27;45318;-62
2022/01/09 09:15:20;;;;;;;;;5.25;2.75;;;;;6.74;70.68;99795.41;5101997;27;47080;-62
2022/01/09 09:17:45;;;;;;;;;18.00;13.25;;;;;6.76;70.83;99803.13;5102394;27;46323;-65
2022/01/09 09:20:10;;;;;;;;;15.00;12.00;;;;;6.76;70.95;99810.94;5101844;27;45323;-64
2022/01/09 09:22:36;;;;;;;;;21.00;18.00;;;;;6.75;71.00;99822.34;5120421;27;45345;-66
2022/01/09 09:25:01;;;;;;;;;17.75;16.00;;;;;6.74;71.25;99825.91;5119621;27;61042;-65
2022/01/09 09:27:30;;;;;;;;;18.75;14.75;;;;;6.75;71.48;99831.00;5066839;27;64537;-63
2022/01/09 09:29:57;;;;;;;;;16.50;12.00;;;;;6.75;71.63;99832.78;5120143;27;45907;-64
2022/01/09 09:32:23;;;;;;;;;31.75;23.75;;;;;6.75;71.40;99828.38;5101878;27;45336;-63
2022/01/09 09:34:48;;;;;;;;;22.25;17.00;;;;;6.75;71.32;99827.56;5119407;27;64594;-61
2022/01/09 09:37:14;;;;;;;;;24.25;16.25;;;;;6.72;71.30;99827.81;5120265;27;45463;-65
2022/01/09 09:39:39;;;;;;;;;12.25;8.75;;;;;6.72;70.48;99830.44;5119413;27;68462;-61
2022/01/09 09:42:04;;;;;;;;;8.75;6.00;;;;;6.68;70.76;99822.00;5119241;27;64989;-66
2022/01/09 09:44:30;;;;;;;;;5.75;4.00;;;;;6.65;70.03;99817.88;5084653;27;45280;-63
2022/01/09 09:46:55;;;;;;;;;4.25;3.25;;;;;6.60;69.87;99814.84;5119889;27;45991;-64
2022/01/09 09:49:22;;;;;;;;;3.00;2.00;;;;;6.56;69.91;99815.22;5084706;27;45408;-66
2022/01/09 09:51:47;;;;;;;;;1.00;1.00;;;;;6.52;70.01;99814.63;5101798;27;45366;-65
2022/01/09 09:54:13;;;;;;;;;1.00;0.00;;;;;6.49;70.19;99812.28;5101613;27;45311;-64
2022/01/09 09:56:38;;;;;;;;;2.00;1.25;;;;;6.48;70.17;99821.91;5099941;27;69533;-63
2022/01/09 09:59:03;;;;;;;;;3.00;1.25;;;;;6.46;70.05;99828.19;5083427;27;66452;-62
2022/01/09 10:01:36;;;;;;;;;4.00;2.00;;;;;6.43;70.38;99834.50;5101672;27;45374;-65
2022/01/09 10:04:04;;;;;;;;;1.75;1.25;;;;;6.39;70.35;99833.91;5084683;27;45580;-64
2022/01/09 10:06:48;;;;;;;;;7.50;5.75;;;;;6.38;70.25;99831.44;5084205;27;46125;-62
2022/01/09 10:09:18;;;;;;;;;5.75;3.50;;;;;6.41;70.18;99846.00;5101442;27;45386;-63
2022/01/09 10:12:00;;;;;;;;;4.50;4.00;;;;;6.39;70.57;99841.75;5119597;27;45305;-64
2022/01/09 10:14:29;;;;;;;;;4.75;2.00;;;;;6.37;70.50;99838.44;5101733;27;45270;-63
2022/01/09 10:17:16;;;;;;;;;7.50;6.25;;;;;6.36;70.57;99839.38;5119455;27;45417;-62
2022/01/09 10:19:54;;;;;;;;;4.50;2.50;;;;;6.35;70.85;99839.53;5119365;27;45416;-62
2022/01/09 10:22:29;;;;;;;;;2.75;2.00;;;;;6.32;70.88;99843.22;5119713;27;45376;-64
2022/01/09 10:24:55;;;;;;;;;5.75;4.00;;;;;6.30;71.01;99845.13;5119758;27;45330;-64
2022/01/09 10:27:30;;;;;;;;;2.50;2.00;;;;;6.31;71.24;99852.00;5100859;27;46345;-64
2022/01/09 10:29:55;;;;;;;;;2.00;2.00;;;;;6.31;71.34;99861.59;5119195;27;45199;-65
2022/01/09 10:32:24;;;;;;;;;3.50;3.50;;;;;6.29;71.31;99859.13;5101046;27;45459;-63
2022/01/09 10:35:12;;;;;;;;;7.00;7.00;;;;;6.29;71.34;99859.13;5119610;27;45482;-65
2022/01/09 10:37:39;;;;;;;;;20.00;14.75;;;;;6.29;71.29;99861.75;5100907;27;45353;-65
2022/01/09 10:40:06;;;;;;;;;23.25;16.25;;;;;6.30;71.25;99859.94;5119079;27;45796;-64
2022/01/09 10:42:32;;;;;;;;;10.75;10.00;;;;;6.30;70.79;99873.00;5100884;27;45342;-64
2022/01/09 10:45:15;;;;;;;;;17.25;16.25;;;;;6.27;70.87;99868.03;5119424;27;45535;-63
2022/01/09 10:47:40;;;;;;;;;11.75;8.00;;;;;6.27;70.43;99863.66;5100836;27;45457;-65
2022/01/09 10:50:06;;;;;;;;;10.00;8.75;;;;;6.26;70.49;99869.81;5118445;27;64661;-62
2022/01/09 10:52:36;;;;;;;;;8.50;8.50;;;;;6.25;70.67;99868.16;5118885;27;45480;-63
2022/01/09 10:55:06;;;;;;;;;18.50;15.75;;;;;6.24;70.79;99867.31;5100527;27;45339;-62
2022/01/09 10:57:33;;;;;;;;;9.00;7.50;;;;;6.23;70.97;99870.88;5083335;27;45306;-62
2022/01/09 11:00:08;;;;;;;;;11.50;6.00;;;;;6.21;70.62;99870.16;5100582;27;45265;-63
2022/01/09 11:02:34;;;;;;;;;5.75;4.00;;;;;6.18;70.49;99867.81;5100715;27;45181;-63
2022/01/09 11:04:59;;;;;;;;;4.00;4.00;;;;;6.17;70.56;99860.94;5118824;27;45345;-64
2022/01/09 11:07:24;;;;;;;;;8.25;5.00;;;;;6.15;70.73;99848.97;5116812;27;75647;-63
2022/01/09 11:09:51;;;;;;;;;6.50;4.25;;;;;6.15;70.68;99838.53;5117842;27;48005;-63
2022/01/09 11:12:18;;;;;;;;;9.00;8.00;;;;;6.14;71.49;99842.09;5083386;27;45293;-64
2022/01/09 11:14:44;;;;;;;;;3.00;3.00;;;;;6.16;71.47;99845.41;5083634;27;45268;-62
2022/01/09 11:17:10;;;;;;;;;7.75;6.50;;;;;6.17;71.49;99855.72;5081551;27;72297;-62
2022/01/09 11:19:35;;;;;;;;;7.00;3.00;;;;;6.18;71.34;99852.16;5082541;27;45530;-64
2022/01/09 11:22:03;;;;;;;;;7.00;4.00;;;;;6.20;71.07;99854.66;5100016;27;45303;-62
2022/01/09 11:25:03;;;;;;;;;5.75;4.50;;;;;6.20;71.28;99859.88;5100103;27;45261;-63
2022/01/09 11:27:34;;;;;;;;;8.00;4.00;;;;;6.22;71.41;99848.34;5058374;27;45313;-65
2022/01/09 11:30:24;;;;;;;;;2.00;2.00;;;;;6.23;71.34;99854.41;5118589;27;45303;-64
2022/01/09 11:33:06;;;;;;;;;1.25;1.00;;;;;6.24;71.71;99851.66;5118128;27;45314;-63
2022/01/09 11:35:38;;;;;;;;;3.50;2.00;;;;;6.27;71.46;99848.00;5099928;27;45444;-65
2022/01/09 11:38:12;;;;;;;;;3.00;2.00;;;;;6.28;71.47;99841.81;5083447;27;46192;-65